Terminal Aerodrome Forecast
Issued by NWS

Home | Current Version | Previous Version | Text Only | Print | Product List | Glossary On
Versions: 1 2 3 4 5 6 7 8 9 10 11 12 13 14 15 16 17 18 19 20 21 22 23 24
000
FTUS41 KALY 301737
TAFPSF
TAF
KPSF 301737Z 3018/3118 22007KT P6SM SCT250
     FM302100 24010KT P6SM VCSH SCT035 BKN200
      TEMPO 3021/3024 3SM -TSRA BR BKN035CB
     FM310000 25006KT 6SM BR VCSH SCT015 BKN035
     FM310500 VRB03KT 1SM BR BKN004
     FM311200 29009G16KT P6SM SKC=

USA.gov is the U.S. government's official web portal to all federal, state and local government web resources and services.